Lapark, Pennsylvania
Current Conditions -  °F | °C
As of 2:55 AM on Wednesday 22 Oct 2014 (Local Time) from KMQS Reporting Station
Light Rain Light Rain  
Wind Chill: 52°   Ceiling: 4800
Heat Index: 52°   Visibility: 6mi
Dew Point: 50°   Wind: 8mph
Humidity: 94%   Direction: 20°NNE
Pressure: 29.87"   Gusts: NA
Location:  39.9757°N, 76.0913°W
Report Text: KMQS 220655Z AUTO 02007KT 6SM -RA FEW032 SCT041 BKN048 11/10 A2987 RMK AO2 P0004
Loading
Personal Weather Stations






























Interactive Weather Map
Tropical Storm Tracking
New forecast layout! Learn more

10-Day Weather Forecast

Advertisements
Track Severe Weather on mobile